createdAt,value
2023-02-19T00:00:00.859Z,91.60
2023-02-19T00:02:58.628Z,91.80
2023-02-19T00:05:56.478Z,91.70
2023-02-19T00:08:54.195Z,91.50
2023-02-19T00:11:51.958Z,91.70
2023-02-19T00:14:49.634Z,91.40
2023-02-19T00:17:47.414Z,91.70
2023-02-19T00:20:45.092Z,91.50
2023-02-19T00:23:43.074Z,91.90
2023-02-19T00:26:41.944Z,92.00
2023-02-19T00:29:39.770Z,92.40
2023-02-19T00:32:37.429Z,92.70
2023-02-19T00:35:35.969Z,92.50
2023-02-19T00:38:37.265Z,92.70
2023-02-19T00:41:35.295Z,92.20
2023-02-19T00:44:33.017Z,92.20
2023-02-19T00:47:30.849Z,92.10
2023-02-19T00:50:28.514Z,91.80
2023-02-19T00:53:26.343Z,91.80
2023-02-19T00:56:24.019Z,92.10
2023-02-19T00:59:21.832Z,91.80
2023-02-19T01:02:19.530Z,91.90
2023-02-19T01:05:17.333Z,91.60
2023-02-19T01:08:15.085Z,91.80
2023-02-19T01:11:13.546Z,92.00
2023-02-19T01:14:11.672Z,92.60
2023-02-19T01:17:09.474Z,92.40
2023-02-19T01:20:07.408Z,92.60
2023-02-19T01:23:05.226Z,92.70
2023-02-19T01:26:07.816Z,92.80
2023-02-19T01:29:05.696Z,92.80
2023-02-19T01:32:03.772Z,92.60
2023-02-19T01:35:01.703Z,92.90
2023-02-19T01:37:59.451Z,92.60
2023-02-19T01:41:03.066Z,92.90
2023-02-19T01:44:30.112Z,92.70
2023-02-19T01:47:27.980Z,92.50
2023-02-19T01:50:29.123Z,92.40
2023-02-19T01:53:30.091Z,92.50
2023-02-19T01:56:29.138Z,92.20
2023-02-19T01:59:27.024Z,91.80
2023-02-19T02:02:27.878Z,91.60
2023-02-19T02:05:37.525Z,91.90
2023-02-19T02:08:50.971Z,92.10
2023-02-19T02:11:51.682Z,92.30
2023-02-19T02:14:49.364Z,92.10
2023-02-19T02:18:02.303Z,92.00
2023-02-19T02:21:06.576Z,91.60
2023-02-19T02:24:21.833Z,91.60
2023-02-19T02:27:54.645Z,91.80
2023-02-19T02:31:05.183Z,92.10
2023-02-19T02:34:17.587Z,92.20
2023-02-19T02:37:17.340Z,92.60
2023-02-19T02:40:15.408Z,92.60
2023-02-19T02:43:14.250Z,92.70
2023-02-19T02:46:13.682Z,92.80
2023-02-19T02:49:19.730Z,93.30
2023-02-19T02:52:37.388Z,93.10
2023-02-19T02:55:39.721Z,92.80
2023-02-19T02:58:38.094Z,92.70
2023-02-19T03:01:57.027Z,92.50
2023-02-19T03:05:29.896Z,92.70
2023-02-19T03:08:38.406Z,93.00
2023-02-19T03:12:04.527Z,93.70
2023-02-19T03:15:22.590Z,93.30
2023-02-19T03:18:38.126Z,92.40
2023-02-19T03:21:39.899Z,91.80
2023-02-19T03:25:00.808Z,92.40
2023-02-19T03:28:01.219Z,91.80
2023-02-19T03:30:58.998Z,91.10
2023-02-19T03:34:03.405Z,90.40
2023-02-19T03:37:11.137Z,90.10
2023-02-19T03:40:15.549Z,90.70
2023-02-19T03:43:22.308Z,90.20
2023-02-19T03:46:33.673Z,90.60
2023-02-19T03:49:53.642Z,90.40
2023-02-19T03:53:34.482Z,90.50
2023-02-19T03:56:38.864Z,88.20
2023-02-19T03:59:45.578Z,87.50
2023-02-19T04:02:50.964Z,86.80
2023-02-19T04:05:54.127Z,86.00
2023-02-19T04:08:56.863Z,86.00
2023-02-19T04:11:55.867Z,84.60
2023-02-19T04:15:03.565Z,85.60
2023-02-19T04:18:09.030Z,85.30
2023-02-19T04:21:08.440Z,85.10
2023-02-19T04:24:14.113Z,83.70
2023-02-19T04:27:12.282Z,83.40
2023-02-19T04:30:12.178Z,84.10
2023-02-19T04:33:09.998Z,85.00
2023-02-19T04:36:10.334Z,85.70
2023-02-19T04:39:08.719Z,83.70
2023-02-19T04:42:06.548Z,84.30
2023-02-19T04:45:04.544Z,85.30
2023-02-19T04:48:15.576Z,84.00
2023-02-19T04:51:13.464Z,83.80
2023-02-19T04:54:11.537Z,84.40
2023-02-19T04:57:09.298Z,86.60
2023-02-19T05:00:08.748Z,88.90
2023-02-19T05:03:06.396Z,87.80
2023-02-19T05:06:20.256Z,88.60
2023-02-19T05:09:21.450Z,85.80
2023-02-19T05:12:19.258Z,85.70
2023-02-19T05:15:20.018Z,88.00
2023-02-19T05:18:17.773Z,85.30
2023-02-19T05:21:16.318Z,86.30
2023-02-19T05:24:14.114Z,86.60
2023-02-19T05:27:11.788Z,88.50
2023-02-19T05:30:10.344Z,88.10
2023-02-19T05:33:08.031Z,90.30
2023-02-19T05:36:09.965Z,90.00
2023-02-19T05:39:07.915Z,91.00
2023-02-19T05:42:05.772Z,91.40
2023-02-19T05:45:03.406Z,90.70
2023-02-19T05:48:01.664Z,90.40
2023-02-19T05:51:06.159Z,89.00
2023-02-19T05:54:04.145Z,89.30
2023-02-19T05:57:01.932Z,89.90
2023-02-19T05:59:59.697Z,90.60
2023-02-19T06:02:57.415Z,90.10
2023-02-19T06:05:55.428Z,89.60
2023-02-19T06:08:53.708Z,88.90
2023-02-19T06:11:51.553Z,87.70
2023-02-19T06:14:49.657Z,87.60
2023-02-19T06:17:47.425Z,87.10
2023-02-19T06:20:45.105Z,85.80
2023-02-19T06:23:43.638Z,83.80
2023-02-19T06:26:41.485Z,82.70
2023-02-19T06:29:39.339Z,81.80
2023-02-19T06:32:37.460Z,81.80
2023-02-19T06:35:35.227Z,81.50
2023-02-19T06:38:32.951Z,81.70
2023-02-19T06:41:30.779Z,80.70
2023-02-19T06:44:28.487Z,81.00
2023-02-19T06:47:26.317Z,81.20
2023-02-19T06:50:24.042Z,79.40
2023-02-19T06:53:22.120Z,80.80
2023-02-19T06:56:30.537Z,82.90
2023-02-19T06:59:28.488Z,81.70
2023-02-19T07:02:26.763Z,78.90
2023-02-19T07:05:24.645Z,78.30
2023-02-19T07:08:22.353Z,78.30
2023-02-19T07:11:20.308Z,76.90
2023-02-19T07:14:18.263Z,76.30
2023-02-19T07:17:16.113Z,76.40
2023-02-19T07:20:14.228Z,73.90
2023-02-19T07:23:11.994Z,73.50
2023-02-19T07:26:11.781Z,73.30
2023-02-19T07:29:10.829Z,77.30
2023-02-19T07:32:08.526Z,74.80
2023-02-19T07:35:06.663Z,75.20
2023-02-19T07:38:04.394Z,74.40
2023-02-19T07:41:04.515Z,75.00
2023-02-19T07:44:02.242Z,74.40
2023-02-19T07:46:59.993Z,74.00
2023-02-19T07:49:57.734Z,73.10
2023-02-19T07:52:55.526Z,71.80
2023-02-19T07:55:53.871Z,72.50
2023-02-19T07:58:51.649Z,73.60
2023-02-19T08:02:04.971Z,73.50
2023-02-19T08:05:03.054Z,72.70
2023-02-19T08:08:04.007Z,72.80
2023-02-19T08:11:19.035Z,74.40
2023-02-19T08:14:16.973Z,73.40
2023-02-19T08:17:14.795Z,73.00
2023-02-19T08:20:12.498Z,72.20
2023-02-19T08:23:11.394Z,76.60
2023-02-19T08:26:25.685Z,77.50
2023-02-19T08:29:27.202Z,77.00
2023-02-19T08:32:24.876Z,74.60
2023-02-19T08:35:23.195Z,74.40
2023-02-19T08:38:20.889Z,76.50
2023-02-19T08:41:18.789Z,74.50
2023-02-19T08:44:16.568Z,72.30
2023-02-19T08:47:14.439Z,73.10
2023-02-19T08:50:12.761Z,71.60
2023-02-19T08:53:10.638Z,73.20
2023-02-19T08:56:11.797Z,72.20
2023-02-19T08:59:09.635Z,71.10
2023-02-19T09:02:07.457Z,73.40
2023-02-19T09:05:06.363Z,72.40
2023-02-19T09:08:04.072Z,73.40
2023-02-19T09:11:05.205Z,72.90
2023-02-19T09:14:03.044Z,75.80
2023-02-19T09:17:01.785Z,77.00
2023-02-19T09:19:59.595Z,76.20
2023-02-19T09:22:58.949Z,73.40
2023-02-19T09:26:00.408Z,72.20
2023-02-19T09:28:58.740Z,71.50
2023-02-19T09:31:59.403Z,71.10
2023-02-19T09:34:57.173Z,71.50
2023-02-19T09:37:54.826Z,72.10
2023-02-19T09:40:55.921Z,71.40
2023-02-19T09:43:53.704Z,72.40
2023-02-19T09:46:53.753Z,71.90
2023-02-19T09:49:57.377Z,71.80
2023-02-19T09:52:58.982Z,70.10
2023-02-19T09:55:57.290Z,69.30
2023-02-19T09:58:59.077Z,70.40
2023-02-19T10:02:05.927Z,70.30
2023-02-19T10:05:12.630Z,69.20
2023-02-19T10:08:16.199Z,69.30
2023-02-19T10:11:14.791Z,69.30
2023-02-19T10:14:19.217Z,68.80
2023-02-19T10:17:27.386Z,68.10
2023-02-19T10:20:28.411Z,71.80
2023-02-19T10:23:27.026Z,73.00
2023-02-19T10:26:25.198Z,74.40
2023-02-19T10:29:25.232Z,75.70
2023-02-19T10:32:26.128Z,77.30
2023-02-19T10:35:24.061Z,77.40
2023-02-19T10:38:26.571Z,77.70
2023-02-19T10:41:27.036Z,78.00
2023-02-19T10:44:28.624Z,78.40
2023-02-19T10:47:27.912Z,78.30
2023-02-19T10:50:39.709Z,78.30
2023-02-19T10:53:48.803Z,78.70
2023-02-19T10:56:46.984Z,82.40
2023-02-19T11:00:02.418Z,84.70
2023-02-19T11:03:20.461Z,83.70
2023-02-19T11:06:22.045Z,83.70
2023-02-19T11:09:31.672Z,84.80
2023-02-19T11:12:34.002Z,86.10
2023-02-19T11:15:35.461Z,84.20
2023-02-19T11:18:36.995Z,82.80
2023-02-19T11:21:34.938Z,82.30
2023-02-19T11:24:37.669Z,81.80
2023-02-19T11:27:35.350Z,81.90
2023-02-19T11:30:36.957Z,82.80
2023-02-19T11:33:44.365Z,82.60
2023-02-19T11:36:43.952Z,82.80
2023-02-19T11:39:45.541Z,81.80
2023-02-19T11:42:52.211Z,83.10
2023-02-19T11:46:05.602Z,82.70
2023-02-19T11:49:18.945Z,83.00
2023-02-19T11:52:33.483Z,86.00
2023-02-19T11:56:08.378Z,86.10
2023-02-19T11:59:23.532Z,86.00
2023-02-19T12:02:50.058Z,85.70
2023-02-19T12:06:15.958Z,88.10
2023-02-19T12:09:31.728Z,87.80
2023-02-19T12:13:00.106Z,86.80
2023-02-19T12:16:29.403Z,87.80
2023-02-19T12:19:45.401Z,89.50
2023-02-19T12:23:05.940Z,89.60
2023-02-19T12:26:24.643Z,88.70
2023-02-19T12:29:44.214Z,90.80
2023-02-19T12:33:06.752Z,90.20
2023-02-19T12:36:21.823Z,88.70
2023-02-19T12:39:39.829Z,88.70
2023-02-19T12:43:10.306Z,89.00
2023-02-19T12:46:22.738Z,89.40
2023-02-19T12:49:29.808Z,88.60
2023-02-19T12:52:32.601Z,88.70
2023-02-19T12:55:45.353Z,89.00
2023-02-19T12:58:54.262Z,89.70
2023-02-19T13:01:59.060Z,90.10
2023-02-19T13:05:09.635Z,90.40
2023-02-19T13:08:29.879Z,90.30
2023-02-19T13:11:44.652Z,90.40
2023-02-19T13:14:50.928Z,90.30
2023-02-19T13:17:56.062Z,90.40
2023-02-19T13:20:56.998Z,90.50
2023-02-19T13:23:59.064Z,90.50
2023-02-19T13:27:29.592Z,90.00
2023-02-19T13:30:54.104Z,90.10
2023-02-19T13:34:21.741Z,90.00
2023-02-19T13:37:20.773Z,90.50
2023-02-19T13:40:37.529Z,90.40
2023-02-19T13:43:39.373Z,90.40
2023-02-19T13:46:41.998Z,90.40
2023-02-19T13:49:43.102Z,90.60
2023-02-19T13:52:41.414Z,90.40
2023-02-19T13:55:51.888Z,90.70
2023-02-19T13:59:20.809Z,90.70
2023-02-19T14:02:31.094Z,91.10
2023-02-19T14:05:59.047Z,90.90
2023-02-19T14:08:58.956Z,91.10
2023-02-19T14:12:15.499Z,91.00
2023-02-19T14:15:45.161Z,90.90
2023-02-19T14:18:52.728Z,91.10
2023-02-19T14:21:58.216Z,91.00
2023-02-19T14:25:07.396Z,91.40
2023-02-19T14:28:25.213Z,91.20
2023-02-19T14:31:34.514Z,91.40
2023-02-19T14:34:40.054Z,91.50
2023-02-19T14:38:13.672Z,91.20
2023-02-19T14:41:33.359Z,91.30
2023-02-19T14:44:53.625Z,91.00
2023-02-19T14:48:02.404Z,90.90
2023-02-19T14:51:11.607Z,90.90
2023-02-19T14:54:16.836Z,91.10
2023-02-19T14:57:20.900Z,91.20
2023-02-19T15:00:29.930Z,90.90
2023-02-19T15:03:33.848Z,90.80
2023-02-19T15:06:34.950Z,91.20
2023-02-19T15:09:37.311Z,91.30
2023-02-19T15:12:46.588Z,91.20
2023-02-19T15:15:46.990Z,91.30
2023-02-19T15:18:47.110Z,90.80
2023-02-19T15:21:48.951Z,91.10
2023-02-19T15:24:48.564Z,90.90
2023-02-19T15:27:46.984Z,91.00
2023-02-19T15:30:44.907Z,91.00
2023-02-19T15:33:51.176Z,91.00
2023-02-19T15:36:51.985Z,91.00
2023-02-19T15:39:51.855Z,90.60
2023-02-19T15:42:49.718Z,90.70
2023-02-19T15:45:48.934Z,90.30
2023-02-19T15:48:53.550Z,90.30
2023-02-19T15:52:05.952Z,90.10
2023-02-19T15:55:24.609Z,90.20
2023-02-19T15:58:33.450Z,90.20
2023-02-19T16:01:38.024Z,90.10
2023-02-19T16:04:36.846Z,90.30
2023-02-19T16:07:34.690Z,90.20
2023-02-19T16:10:33.205Z,90.30
2023-02-19T16:13:33.241Z,90.60
2023-02-19T16:16:39.236Z,90.30
2023-02-19T16:19:48.841Z,90.40
2023-02-19T16:22:47.053Z,90.50
2023-02-19T16:25:46.742Z,90.20
2023-02-19T16:28:44.715Z,90.10
2023-02-19T16:31:50.733Z,90.00
2023-02-19T16:34:51.176Z,89.70
2023-02-19T16:38:04.326Z,89.70
2023-02-19T16:41:12.997Z,89.80
2023-02-19T16:44:36.320Z,90.10
2023-02-19T16:47:37.989Z,89.60
2023-02-19T16:50:36.172Z,89.20
2023-02-19T16:53:34.349Z,89.30
2023-02-19T16:56:32.140Z,89.10
2023-02-19T16:59:29.941Z,89.30
2023-02-19T17:02:27.714Z,89.00
2023-02-19T17:05:29.540Z,88.50
2023-02-19T17:08:35.546Z,89.40
2023-02-19T17:11:33.413Z,89.30
2023-02-19T17:14:31.137Z,88.90
2023-02-19T17:17:28.993Z,88.80
2023-02-19T17:20:30.357Z,88.90
2023-02-19T17:23:28.299Z,88.80
2023-02-19T17:26:29.075Z,90.10
2023-02-19T17:29:29.232Z,89.60
2023-02-19T17:32:27.180Z,89.50
2023-02-19T17:35:25.809Z,89.50
2023-02-19T17:38:23.522Z,89.40
2023-02-19T17:41:21.461Z,89.20
2023-02-19T17:44:19.286Z,89.00
2023-02-19T17:47:17.127Z,89.50
2023-02-19T17:50:17.330Z,88.70
2023-02-19T17:53:15.181Z,88.70
2023-02-19T17:56:19.204Z,88.60
2023-02-19T17:59:18.341Z,89.20
2023-02-19T18:02:16.219Z,89.50
2023-02-19T18:05:14.338Z,88.90
2023-02-19T18:08:12.354Z,89.80
2023-02-19T18:11:10.511Z,89.70
2023-02-19T18:14:08.476Z,89.30
2023-02-19T18:17:06.310Z,90.00
2023-02-19T18:20:05.344Z,89.60
2023-02-19T18:23:04.046Z,90.00
2023-02-19T18:26:01.940Z,89.90
2023-02-19T18:29:00.043Z,90.00
2023-02-19T18:31:57.901Z,90.30
2023-02-19T18:34:58.294Z,91.10
2023-02-19T18:37:56.369Z,91.10
2023-02-19T18:40:54.247Z,91.40
2023-02-19T18:43:51.967Z,92.30
2023-02-19T18:46:50.376Z,93.00
2023-02-19T18:49:50.245Z,94.00
2023-02-19T18:52:48.228Z,94.50
2023-02-19T18:55:45.976Z,94.20
2023-02-19T18:58:43.805Z,95.00
2023-02-19T19:01:41.553Z,94.90
2023-02-19T19:04:39.993Z,94.50
2023-02-19T19:07:37.794Z,94.50
2023-02-19T19:10:35.810Z,94.30
2023-02-19T19:13:33.504Z,94.00
2023-02-19T19:16:31.605Z,93.40
2023-02-19T19:19:29.395Z,94.10
2023-02-19T19:22:27.275Z,92.80
2023-02-19T19:25:25.126Z,93.50
2023-02-19T19:28:23.547Z,93.10
2023-02-19T19:31:22.204Z,92.90
2023-02-19T19:34:20.387Z,92.50
2023-02-19T19:37:18.211Z,92.50
2023-02-19T19:40:18.904Z,93.10
2023-02-19T19:43:16.679Z,92.90
2023-02-19T19:46:19.489Z,92.80
2023-02-19T19:49:22.498Z,92.80
2023-02-19T19:52:20.411Z,92.20
2023-02-19T19:55:18.399Z,92.10
2023-02-19T19:58:17.434Z,92.20
2023-02-19T20:01:15.564Z,91.90
2023-02-19T20:04:14.234Z,91.10
2023-02-19T20:07:11.969Z,91.00
2023-02-19T20:10:12.134Z,90.80
2023-02-19T20:13:10.151Z,90.80
2023-02-19T20:16:13.916Z,90.80
2023-02-19T20:19:12.686Z,90.80
2023-02-19T20:22:10.600Z,90.60
2023-02-19T20:25:08.600Z,91.40
2023-02-19T20:28:06.596Z,91.60
2023-02-19T20:31:04.543Z,91.90
2023-02-19T20:34:02.488Z,91.60
2023-02-19T20:37:00.565Z,91.20
2023-02-19T20:39:58.442Z,91.50
2023-02-19T20:42:56.180Z,91.70
2023-02-19T20:45:54.120Z,91.50
2023-02-19T20:48:52.060Z,91.50
2023-02-19T20:51:52.588Z,91.40
2023-02-19T20:54:54.192Z,90.80
2023-02-19T20:57:52.090Z,91.30
2023-02-19T21:00:49.957Z,91.40
2023-02-19T21:03:47.804Z,91.30
2023-02-19T21:06:46.183Z,91.50
2023-02-19T21:09:44.076Z,90.90
2023-02-19T21:12:42.703Z,91.00
2023-02-19T21:15:40.674Z,91.30
2023-02-19T21:18:38.519Z,90.90
2023-02-19T21:21:36.577Z,90.80
2023-02-19T21:24:34.359Z,90.80
2023-02-19T21:27:32.304Z,90.40
2023-02-19T21:30:30.083Z,89.50
2023-02-19T21:33:27.992Z,89.90
2023-02-19T21:36:25.677Z,90.30
2023-02-19T21:39:26.046Z,90.30
2023-02-19T21:42:23.738Z,88.60
2023-02-19T21:45:21.870Z,87.50
2023-02-19T21:48:19.662Z,86.40
2023-02-19T21:51:18.342Z,85.40
2023-02-19T21:54:20.456Z,84.60
2023-02-19T21:57:18.388Z,83.60
2023-02-19T22:00:16.476Z,82.60
2023-02-19T22:03:17.720Z,83.10
2023-02-19T22:06:15.679Z,87.10
2023-02-19T22:09:14.952Z,87.50
2023-02-19T22:12:12.651Z,87.60
2023-02-19T22:15:10.468Z,87.80
2023-02-19T22:18:08.232Z,87.50
2023-02-19T22:21:07.117Z,88.90
2023-02-19T22:24:05.258Z,88.70
2023-02-19T22:27:03.127Z,87.70
2023-02-19T22:30:00.890Z,87.80
2023-02-19T22:32:58.812Z,87.10
2023-02-19T22:35:56.536Z,85.50
2023-02-19T22:38:54.554Z,85.40
2023-02-19T22:41:53.210Z,85.60
2023-02-19T22:44:51.020Z,85.70
2023-02-19T22:47:48.907Z,86.60
2023-02-19T22:50:46.732Z,87.00
2023-02-19T22:53:46.387Z,86.50
2023-02-19T22:56:44.863Z,86.70
2023-02-19T22:59:42.593Z,87.70
2023-02-19T23:02:40.386Z,87.50
2023-02-19T23:05:38.091Z,89.00
2023-02-19T23:08:35.945Z,89.20
2023-02-19T23:11:39.673Z,89.50
2023-02-19T23:14:38.323Z,88.90
2023-02-19T23:17:36.196Z,88.70
2023-02-19T23:20:33.987Z,89.70
2023-02-19T23:23:31.707Z,90.20
2023-02-19T23:26:29.556Z,89.60
2023-02-19T23:29:28.747Z,89.30
2023-02-19T23:32:26.556Z,89.80
2023-02-19T23:35:24.313Z,89.90
2023-02-19T23:38:22.251Z,88.60
2023-02-19T23:41:20.046Z,88.00
2023-02-19T23:44:18.642Z,87.30
2023-02-19T23:47:16.481Z,89.50
2023-02-19T23:50:16.728Z,89.00
2023-02-19T23:53:14.499Z,88.80
2023-02-19T23:56:12.638Z,89.10
2023-02-19T23:59:10.526Z,89.40
